FFL9133 MTCH-MYNN
Flight info
| Callsign | FFL9133 |
|---|---|
| Flight time | 1h 14m |
| Altitude | 24000 |
| Route | NOSOX1N NOSOX A756 BODLO/N0435F400 A756 KNSLY DCT ZUMMA |
| Aircraft | B737/M-SDE2E3FGHIRWXY/LB1 |
Departure
| Time | 2026-04-25 22:50 |
|---|---|
| Airport | Cap Haitien International Airport (MTCH) |
Arrival
| Time | 2026-04-26 00:04 |
|---|---|
| Airport | Lynden Pindling International Airport (MYNN) |
| Time | Latitude | Longitude | Altitude | Speed | Heading |
|---|---|---|---|---|---|
| 2026-04-25 22:42 | 19.73645 | -72.19414 | 8 ft | 0 kts | 128° |
| 2026-04-25 22:45 | 19.73620 | -72.19401 | 10 ft | 9 kts | 175° |
| 2026-04-25 22:45 | 19.73562 | -72.19437 | 8 ft | 11 kts | 219° |
| 2026-04-25 22:46 | 19.73502 | -72.19488 | 7 ft | 12 kts | 217° |
| 2026-04-25 22:46 | 19.73425 | -72.19499 | 8 ft | 11 kts | 173° |
| 2026-04-25 22:46 | 19.73342 | -72.19489 | 6 ft | 13 kts | 174° |
| 2026-04-25 22:46 | 19.73241 | -72.19505 | 4 ft | 17 kts | 205° |
| 2026-04-25 22:47 | 19.73144 | -72.19585 | 3 ft | 19 kts | 217° |
| 2026-04-25 22:47 | 19.73028 | -72.19682 | 6 ft | 22 kts | 219° |
| 2026-04-25 22:47 | 19.72885 | -72.19809 | 5 ft | 32 kts | 220° |
| 2026-04-25 22:47 | 19.72708 | -72.19966 | 5 ft | 33 kts | 220° |
| 2026-04-25 22:48 | 19.72535 | -72.20121 | 3 ft | 32 kts | 219° |
| 2026-04-25 22:48 | 19.72359 | -72.20275 | -1 ft | 34 kts | 220° |
| 2026-04-25 22:48 | 19.72182 | -72.20436 | 0 ft | 33 kts | 222° |
| 2026-04-25 22:48 | 19.72016 | -72.20586 | 0 ft | 30 kts | 218° |
| 2026-04-25 22:49 | 19.71895 | -72.20696 | 0 ft | 13 kts | 221° |
| 2026-04-25 22:49 | 19.71873 | -72.20699 | 0 ft | 5 kts | 130° |
| 2026-04-25 22:49 | 19.71894 | -72.20674 | 0 ft | 0 kts | 37° |
| 2026-04-25 22:49 | 19.71930 | -72.20644 | 0 ft | 36 kts | 39° |
| 2026-04-25 22:50 | 19.72420 | -72.20218 | 4 ft | 141 kts | 39° |
| 2026-04-25 22:50 | 19.73354 | -72.19413 | 514 ft | 194 kts | 38° |
| 2026-04-25 22:50 | 19.74458 | -72.18476 | 1418 ft | 205 kts | 38° |
| 2026-04-25 22:50 | 19.75593 | -72.17530 | 2380 ft | 213 kts | 37° |
| 2026-04-25 22:51 | 19.76837 | -72.16585 | 2903 ft | 229 kts | 33° |
| 2026-04-25 22:51 | 19.78228 | -72.15576 | 3337 ft | 256 kts | 34° |
| 2026-04-25 22:51 | 19.79779 | -72.14604 | 4158 ft | 263 kts | 14° |
| 2026-04-25 22:51 | 19.81594 | -72.14666 | 5203 ft | 266 kts | 340° |
| 2026-04-25 22:52 | 19.83156 | -72.15706 | 6430 ft | 267 kts | 313° |
| 2026-04-25 22:52 | 19.84167 | -72.17340 | 7619 ft | 267 kts | 292° |
| 2026-04-25 22:52 | 19.84796 | -72.19210 | 8775 ft | 271 kts | 286° |
| 2026-04-25 22:52 | 19.85170 | -72.20482 | 9544 ft | 274 kts | 285° |
| 2026-04-25 22:53 | 19.85946 | -72.23105 | 10776 ft | 290 kts | 285° |
| 2026-04-25 22:53 | 19.86705 | -72.25181 | 11067 ft | 323 kts | 295° |
| 2026-04-25 22:53 | 19.87893 | -72.27346 | 11299 ft | 355 kts | 300° |
| 2026-04-25 22:53 | 19.89298 | -72.29623 | 11547 ft | 380 kts | 301° |
| 2026-04-25 22:54 | 19.90793 | -72.31988 | 12147 ft | 390 kts | 301° |
| 2026-04-25 22:54 | 19.92303 | -72.34395 | 12948 ft | 393 kts | 301° |
| 2026-04-25 22:54 | 19.93806 | -72.36824 | 13751 ft | 395 kts | 300° |
| 2026-04-25 22:54 | 19.95312 | -72.39294 | 14404 ft | 399 kts | 300° |
| 2026-04-25 22:55 | 19.96815 | -72.41782 | 15058 ft | 402 kts | 300° |
| 2026-04-25 22:55 | 19.98330 | -72.44302 | 15702 ft | 406 kts | 300° |
| 2026-04-25 22:55 | 19.99832 | -72.46807 | 16313 ft | 409 kts | 299° |
| 2026-04-25 22:55 | 20.01365 | -72.49369 | 16910 ft | 412 kts | 299° |
| 2026-04-25 22:56 | 20.02911 | -72.51949 | 17482 ft | 416 kts | 299° |
| 2026-04-25 22:56 | 20.04470 | -72.54554 | 18058 ft | 419 kts | 299° |
| 2026-04-25 22:56 | 20.06039 | -72.57175 | 18550 ft | 422 kts | 299° |
| 2026-04-25 22:56 | 20.07621 | -72.59820 | 19017 ft | 425 kts | 299° |
| 2026-04-25 22:57 | 20.09211 | -72.62477 | 19466 ft | 427 kts | 298° |
| 2026-04-25 22:57 | 20.10861 | -72.65122 | 19916 ft | 432 kts | 303° |
| 2026-04-25 22:57 | 20.12789 | -72.67593 | 20340 ft | 437 kts | 307° |
| 2026-04-25 22:57 | 20.14808 | -72.69973 | 20746 ft | 440 kts | 308° |
| 2026-04-25 22:58 | 20.16892 | -72.72382 | 21140 ft | 443 kts | 308° |
| 2026-04-25 22:58 | 20.18978 | -72.74806 | 21522 ft | 446 kts | 308° |
| 2026-04-25 22:58 | 20.21063 | -72.77261 | 21897 ft | 448 kts | 307° |
| 2026-04-25 22:58 | 20.23145 | -72.79740 | 22262 ft | 450 kts | 307° |
| 2026-04-25 22:59 | 20.25227 | -72.82240 | 22616 ft | 452 kts | 307° |
| 2026-04-25 22:59 | 20.27313 | -72.84755 | 22946 ft | 455 kts | 307° |
| 2026-04-25 22:59 | 20.29384 | -72.87255 | 23255 ft | 457 kts | 307° |
| 2026-04-25 22:59 | 20.31491 | -72.89799 | 23563 ft | 459 kts | 306° |
| 2026-04-25 23:00 | 20.33607 | -72.92354 | 23816 ft | 461 kts | 306° |
| 2026-04-25 23:00 | 20.35731 | -72.94917 | 24078 ft | 462 kts | 306° |
| 2026-04-25 23:00 | 20.37858 | -72.97486 | 24347 ft | 463 kts | 306° |
| 2026-04-25 23:00 | 20.39997 | -73.00069 | 24584 ft | 465 kts | 306° |
| 2026-04-25 23:01 | 20.42140 | -73.02655 | 24821 ft | 466 kts | 306° |
| 2026-04-25 23:01 | 20.44292 | -73.05241 | 25042 ft | 468 kts | 306° |
| 2026-04-25 23:01 | 20.46461 | -73.07844 | 25276 ft | 469 kts | 306° |
| 2026-04-25 23:01 | 20.48601 | -73.10412 | 25490 ft | 471 kts | 306° |
| 2026-04-25 23:02 | 20.50781 | -73.13030 | 25697 ft | 472 kts | 306° |
| 2026-04-25 23:02 | 20.52966 | -73.15657 | 25904 ft | 474 kts | 306° |
| 2026-04-25 23:02 | 20.55151 | -73.18285 | 26105 ft | 475 kts | 306° |
| 2026-04-25 23:02 | 20.57347 | -73.20929 | 26317 ft | 475 kts | 306° |
| 2026-04-25 23:03 | 20.59542 | -73.23573 | 26482 ft | 477 kts | 306° |
| 2026-04-25 23:03 | 20.61747 | -73.26231 | 26619 ft | 478 kts | 306° |
| 2026-04-25 23:03 | 20.63927 | -73.28859 | 26745 ft | 479 kts | 306° |
| 2026-04-25 23:03 | 20.66145 | -73.31534 | 26867 ft | 480 kts | 306° |
| 2026-04-25 23:04 | 20.68356 | -73.34203 | 26974 ft | 481 kts | 306° |
| 2026-04-25 23:04 | 20.69827 | -73.35979 | 27036 ft | 481 kts | 306° |
| 2026-04-25 23:04 | 20.72796 | -73.39565 | 27152 ft | 482 kts | 306° |
| 2026-04-25 23:04 | 20.75023 | -73.42257 | 27234 ft | 482 kts | 306° |
| 2026-04-25 23:05 | 20.77247 | -73.44945 | 27312 ft | 483 kts | 306° |
| 2026-04-25 23:05 | 20.79471 | -73.47637 | 27375 ft | 483 kts | 306° |
| 2026-04-25 23:05 | 20.81693 | -73.50325 | 27448 ft | 483 kts | 306° |
| 2026-04-25 23:05 | 20.83916 | -73.53017 | 27532 ft | 483 kts | 306° |
| 2026-04-25 23:06 | 20.86140 | -73.55712 | 27630 ft | 482 kts | 306° |
| 2026-04-25 23:06 | 20.88355 | -73.58398 | 27725 ft | 482 kts | 306° |
| 2026-04-25 23:06 | 20.90572 | -73.61087 | 27830 ft | 482 kts | 306° |
| 2026-04-25 23:06 | 20.92784 | -73.63771 | 27946 ft | 481 kts | 306° |
| 2026-04-25 23:07 | 20.94999 | -73.66460 | 28073 ft | 481 kts | 306° |
| 2026-04-25 23:07 | 20.97275 | -73.69034 | 28181 ft | 485 kts | 311° |
| 2026-04-25 23:07 | 20.99781 | -73.71461 | 28302 ft | 486 kts | 313° |
| 2026-04-25 23:07 | 21.02347 | -73.73829 | 28451 ft | 486 kts | 314° |
| 2026-04-25 23:08 | 21.04925 | -73.76170 | 28587 ft | 486 kts | 314° |
| 2026-04-25 23:08 | 21.07505 | -73.78513 | 28746 ft | 485 kts | 314° |
| 2026-04-25 23:08 | 21.10068 | -73.80856 | 28906 ft | 485 kts | 313° |
| 2026-04-25 23:08 | 21.12620 | -73.83210 | 29081 ft | 484 kts | 313° |
| 2026-04-25 23:09 | 21.15162 | -73.85570 | 29267 ft | 483 kts | 313° |
| 2026-04-25 23:09 | 21.17693 | -73.87932 | 29463 ft | 482 kts | 313° |
| 2026-04-25 23:09 | 21.20217 | -73.90293 | 29666 ft | 481 kts | 313° |
| 2026-04-25 23:09 | 21.22737 | -73.92654 | 29887 ft | 480 kts | 313° |
| 2026-04-25 23:10 | 21.25249 | -73.95008 | 30094 ft | 479 kts | 313° |
| 2026-04-25 23:10 | 21.27755 | -73.97357 | 30289 ft | 479 kts | 313° |
| 2026-04-25 23:10 | 21.30261 | -73.99707 | 30472 ft | 478 kts | 313° |
| 2026-04-25 23:10 | 21.32737 | -74.02029 | 30670 ft | 478 kts | 313° |
| 2026-04-25 23:11 | 21.35242 | -74.04379 | 30881 ft | 477 kts | 313° |
| 2026-04-25 23:11 | 21.37741 | -74.06724 | 31078 ft | 477 kts | 313° |
| 2026-04-25 23:11 | 21.40248 | -74.09077 | 31296 ft | 477 kts | 313° |
| 2026-04-25 23:11 | 21.42734 | -74.11411 | 31684 ft | 473 kts | 312° |
| 2026-04-25 23:12 | 21.45202 | -74.13727 | 32097 ft | 470 kts | 312° |
| 2026-04-25 23:12 | 21.47660 | -74.16036 | 32508 ft | 467 kts | 312° |
| 2026-04-25 23:12 | 21.50068 | -74.18301 | 32902 ft | 466 kts | 312° |
| 2026-04-25 23:12 | 21.52505 | -74.20595 | 33258 ft | 465 kts | 312° |
| 2026-04-25 23:13 | 21.54940 | -74.22888 | 33600 ft | 464 kts | 312° |
| 2026-04-25 23:13 | 21.57364 | -74.25174 | 33933 ft | 464 kts | 312° |
| 2026-04-25 23:13 | 21.59788 | -74.27458 | 34211 ft | 463 kts | 311° |
| 2026-04-25 23:13 | 21.62204 | -74.29736 | 34528 ft | 461 kts | 311° |
| 2026-04-25 23:14 | 21.64610 | -74.32004 | 34854 ft | 459 kts | 311° |
| 2026-04-25 23:14 | 21.67011 | -74.34270 | 35138 ft | 458 kts | 311° |
| 2026-04-25 23:14 | 21.69409 | -74.36534 | 35412 ft | 458 kts | 311° |
| 2026-04-25 23:14 | 21.71798 | -74.38791 | 35691 ft | 457 kts | 311° |
| 2026-04-25 23:15 | 21.74186 | -74.41047 | 35932 ft | 456 kts | 311° |
| 2026-04-25 23:15 | 21.76576 | -74.43309 | 35922 ft | 459 kts | 311° |
| 2026-04-25 23:15 | 21.81318 | -74.47794 | 35924 ft | 454 kts | 311° |
| 2026-04-25 23:16 | 21.86054 | -74.52276 | 35929 ft | 452 kts | 311° |
| 2026-04-25 23:16 | 21.90765 | -74.56741 | 35935 ft | 450 kts | 311° |
| 2026-04-25 23:17 | 21.95461 | -74.61198 | 35935 ft | 450 kts | 311° |
| 2026-04-25 23:17 | 22.00165 | -74.65665 | 35936 ft | 450 kts | 311° |
| 2026-04-25 23:18 | 22.04069 | -74.69375 | 35928 ft | 449 kts | 311° |
| 2026-04-25 23:18 | 22.09515 | -74.74555 | 35934 ft | 449 kts | 311° |
| 2026-04-25 23:19 | 22.13439 | -74.78291 | 35932 ft | 449 kts | 311° |
| 2026-04-25 23:19 | 22.18095 | -74.82728 | 35934 ft | 448 kts | 311° |
| 2026-04-25 23:20 | 22.22772 | -74.87188 | 35934 ft | 448 kts | 311° |
| 2026-04-25 23:20 | 22.27440 | -74.91644 | 35937 ft | 447 kts | 311° |
| 2026-04-25 23:21 | 22.32105 | -74.96101 | 35936 ft | 447 kts | 311° |
| 2026-04-25 23:21 | 22.36756 | -75.00549 | 35936 ft | 446 kts | 311° |
| 2026-04-25 23:22 | 22.41399 | -75.04993 | 35935 ft | 445 kts | 311° |
| 2026-04-25 23:23 | 22.48327 | -75.11633 | 35938 ft | 444 kts | 311° |
| 2026-04-25 23:23 | 22.52949 | -75.16069 | 35932 ft | 444 kts | 311° |
| 2026-04-25 23:24 | 22.57535 | -75.20473 | 35940 ft | 443 kts | 310° |
| 2026-04-25 23:24 | 22.62137 | -75.24896 | 35938 ft | 442 kts | 311° |
| 2026-04-25 23:25 | 22.66736 | -75.29322 | 35945 ft | 442 kts | 311° |
| 2026-04-25 23:25 | 22.71326 | -75.33743 | 35937 ft | 441 kts | 311° |
| 2026-04-25 23:26 | 22.75913 | -75.38164 | 35940 ft | 441 kts | 311° |
| 2026-04-25 23:26 | 22.80495 | -75.42585 | 35939 ft | 441 kts | 311° |
| 2026-04-25 23:27 | 22.85074 | -75.47007 | 35942 ft | 440 kts | 311° |
| 2026-04-25 23:27 | 22.89638 | -75.51419 | 35944 ft | 440 kts | 311° |
| 2026-04-25 23:28 | 22.94201 | -75.55835 | 35947 ft | 439 kts | 311° |
| 2026-04-25 23:28 | 22.98737 | -75.60228 | 35944 ft | 439 kts | 311° |
| 2026-04-25 23:29 | 23.03290 | -75.64641 | 35944 ft | 438 kts | 311° |
| 2026-04-25 23:29 | 23.07839 | -75.69055 | 35945 ft | 438 kts | 311° |
| 2026-04-25 23:30 | 23.12370 | -75.73456 | 35942 ft | 437 kts | 311° |
| 2026-04-25 23:30 | 23.16909 | -75.77868 | 35942 ft | 437 kts | 311° |
| 2026-04-25 23:31 | 23.21403 | -75.82242 | 35948 ft | 436 kts | 311° |
| 2026-04-25 23:31 | 23.25925 | -75.86646 | 35944 ft | 436 kts | 311° |
| 2026-04-25 23:31 | 23.28189 | -75.88855 | 35683 ft | 439 kts | 311° |
| 2026-04-25 23:32 | 23.30460 | -75.91070 | 35383 ft | 436 kts | 311° |
| 2026-04-25 23:32 | 23.32718 | -75.93270 | 35039 ft | 432 kts | 311° |
| 2026-04-25 23:32 | 23.34926 | -75.95423 | 34695 ft | 431 kts | 311° |
| 2026-04-25 23:32 | 23.37164 | -75.97610 | 34355 ft | 433 kts | 312° |
| 2026-04-25 23:33 | 23.39411 | -75.99807 | 34014 ft | 434 kts | 312° |
| 2026-04-25 23:33 | 23.41658 | -76.02005 | 33634 ft | 435 kts | 312° |
| 2026-04-25 23:33 | 23.43908 | -76.04206 | 33250 ft | 435 kts | 312° |
| 2026-04-25 23:33 | 23.46164 | -76.06413 | 32873 ft | 436 kts | 312° |
| 2026-04-25 23:34 | 23.48422 | -76.08624 | 32491 ft | 436 kts | 313° |
| 2026-04-25 23:34 | 23.50686 | -76.10840 | 32121 ft | 437 kts | 313° |
| 2026-04-25 23:34 | 23.52955 | -76.13064 | 31753 ft | 438 kts | 313° |
| 2026-04-25 23:34 | 23.55224 | -76.15288 | 31393 ft | 439 kts | 313° |
| 2026-04-25 23:35 | 23.57496 | -76.17517 | 31037 ft | 440 kts | 313° |
| 2026-04-25 23:35 | 23.59780 | -76.19758 | 30683 ft | 442 kts | 313° |
| 2026-04-25 23:35 | 23.62036 | -76.21974 | 30341 ft | 443 kts | 313° |
| 2026-04-25 23:35 | 23.64328 | -76.24225 | 29992 ft | 444 kts | 313° |
| 2026-04-25 23:36 | 23.66631 | -76.26488 | 29582 ft | 446 kts | 313° |
| 2026-04-25 23:36 | 23.68938 | -76.28756 | 29180 ft | 447 kts | 313° |
| 2026-04-25 23:36 | 23.71251 | -76.31032 | 28782 ft | 448 kts | 313° |
| 2026-04-25 23:36 | 23.73568 | -76.33312 | 28390 ft | 449 kts | 313° |
| 2026-04-25 23:37 | 23.75896 | -76.35604 | 28002 ft | 451 kts | 314° |
| 2026-04-25 23:37 | 23.78227 | -76.37901 | 27626 ft | 452 kts | 314° |
| 2026-04-25 23:37 | 23.80565 | -76.40206 | 27256 ft | 454 kts | 314° |
| 2026-04-25 23:37 | 23.82910 | -76.42517 | 26875 ft | 455 kts | 314° |
| 2026-04-25 23:38 | 23.85269 | -76.44845 | 26509 ft | 456 kts | 314° |
| 2026-04-25 23:38 | 23.87629 | -76.47175 | 26143 ft | 458 kts | 314° |
| 2026-04-25 23:38 | 23.89996 | -76.49512 | 25788 ft | 459 kts | 314° |
| 2026-04-25 23:38 | 23.92372 | -76.51860 | 25438 ft | 460 kts | 314° |
| 2026-04-25 23:39 | 23.94713 | -76.54174 | 25092 ft | 460 kts | 315° |
| 2026-04-25 23:39 | 23.97086 | -76.56521 | 24743 ft | 459 kts | 315° |
| 2026-04-25 23:39 | 23.99449 | -76.58859 | 24402 ft | 457 kts | 315° |
| 2026-04-25 23:39 | 24.01800 | -76.61185 | 24056 ft | 455 kts | 315° |
| 2026-04-25 23:40 | 24.04138 | -76.63501 | 23723 ft | 452 kts | 315° |
| 2026-04-25 23:40 | 24.06464 | -76.65806 | 23370 ft | 450 kts | 315° |
| 2026-04-25 23:40 | 24.08784 | -76.68107 | 22934 ft | 449 kts | 315° |
| 2026-04-25 23:40 | 24.11094 | -76.70400 | 22498 ft | 447 kts | 315° |
| 2026-04-25 23:41 | 24.13400 | -76.72689 | 22056 ft | 445 kts | 315° |
| 2026-04-25 23:41 | 24.15683 | -76.74957 | 21625 ft | 442 kts | 315° |
| 2026-04-25 23:41 | 24.17955 | -76.77215 | 21205 ft | 439 kts | 315° |
| 2026-04-25 23:41 | 24.20207 | -76.79453 | 20778 ft | 436 kts | 315° |
| 2026-04-25 23:42 | 24.22443 | -76.81678 | 20368 ft | 433 kts | 315° |
| 2026-04-25 23:42 | 24.24671 | -76.83896 | 19952 ft | 430 kts | 315° |
| 2026-04-25 23:42 | 24.26879 | -76.86094 | 19556 ft | 428 kts | 316° |
| 2026-04-25 23:42 | 24.29083 | -76.88290 | 19159 ft | 426 kts | 316° |
| 2026-04-25 23:43 | 24.31266 | -76.90466 | 18771 ft | 424 kts | 316° |
| 2026-04-25 23:43 | 24.33438 | -76.92633 | 18384 ft | 422 kts | 316° |
| 2026-04-25 23:43 | 24.35562 | -76.94751 | 17968 ft | 420 kts | 316° |
| 2026-04-25 23:43 | 24.37720 | -76.96906 | 17523 ft | 418 kts | 316° |
| 2026-04-25 23:44 | 24.39863 | -76.99046 | 17089 ft | 415 kts | 316° |
| 2026-04-25 23:44 | 24.41992 | -77.01173 | 16670 ft | 413 kts | 316° |
| 2026-04-25 23:44 | 24.44119 | -77.03299 | 16247 ft | 411 kts | 316° |
| 2026-04-25 23:44 | 24.46222 | -77.05403 | 15824 ft | 408 kts | 316° |
| 2026-04-25 23:45 | 24.48316 | -77.07499 | 15415 ft | 406 kts | 316° |
| 2026-04-25 23:45 | 24.50396 | -77.09587 | 15007 ft | 404 kts | 315° |
| 2026-04-25 23:45 | 24.52450 | -77.11681 | 14621 ft | 402 kts | 315° |
| 2026-04-25 23:45 | 24.54459 | -77.13739 | 14304 ft | 399 kts | 315° |
| 2026-04-25 23:46 | 24.56478 | -77.15811 | 13981 ft | 396 kts | 315° |
| 2026-04-25 23:46 | 24.58489 | -77.17877 | 13624 ft | 395 kts | 315° |
| 2026-04-25 23:46 | 24.60492 | -77.19934 | 13238 ft | 394 kts | 315° |
| 2026-04-25 23:46 | 24.62492 | -77.21993 | 12854 ft | 393 kts | 315° |
| 2026-04-25 23:47 | 24.64487 | -77.24049 | 12476 ft | 391 kts | 315° |
| 2026-04-25 23:47 | 24.66469 | -77.26096 | 12102 ft | 389 kts | 315° |
| 2026-04-25 23:47 | 24.68437 | -77.28134 | 11733 ft | 387 kts | 315° |
| 2026-04-25 23:47 | 24.70574 | -77.29931 | 11343 ft | 389 kts | 330° |
| 2026-04-25 23:48 | 24.72523 | -77.30748 | 11073 ft | 389 kts | 344° |
| 2026-04-25 23:48 | 24.75178 | -77.31285 | 10731 ft | 384 kts | 349° |
| 2026-04-25 23:48 | 24.77773 | -77.31677 | 10368 ft | 367 kts | 351° |
| 2026-04-25 23:48 | 24.80239 | -77.32021 | 10064 ft | 345 kts | 351° |
| 2026-04-25 23:49 | 24.82518 | -77.32327 | 10006 ft | 314 kts | 351° |
| 2026-04-25 23:49 | 24.84578 | -77.32593 | 9994 ft | 291 kts | 351° |
| 2026-04-25 23:49 | 24.86590 | -77.32849 | 9624 ft | 289 kts | 351° |
| 2026-04-25 23:49 | 24.88553 | -77.33099 | 9153 ft | 285 kts | 351° |
| 2026-04-25 23:50 | 24.90502 | -77.33351 | 8676 ft | 279 kts | 351° |
| 2026-04-25 23:50 | 24.92413 | -77.33600 | 8203 ft | 274 kts | 351° |
| 2026-04-25 23:50 | 24.94290 | -77.33904 | 7731 ft | 272 kts | 342° |
| 2026-04-25 23:50 | 24.96019 | -77.34707 | 7288 ft | 269 kts | 333° |
| 2026-04-25 23:51 | 24.97684 | -77.35644 | 6839 ft | 268 kts | 332° |
| 2026-04-25 23:51 | 24.99328 | -77.36593 | 6396 ft | 266 kts | 331° |
| 2026-04-25 23:51 | 25.00965 | -77.37548 | 5922 ft | 265 kts | 331° |
| 2026-04-25 23:51 | 25.02593 | -77.38505 | 5461 ft | 264 kts | 331° |
| 2026-04-25 23:52 | 25.04209 | -77.39461 | 4986 ft | 263 kts | 331° |
| 2026-04-25 23:52 | 25.05817 | -77.40421 | 4522 ft | 263 kts | 331° |
| 2026-04-25 23:52 | 25.07417 | -77.41385 | 4052 ft | 262 kts | 331° |
| 2026-04-25 23:52 | 25.09014 | -77.42357 | 3588 ft | 261 kts | 332° |
| 2026-04-25 23:53 | 25.10600 | -77.43336 | 3127 ft | 261 kts | 332° |
| 2026-04-25 23:53 | 25.12164 | -77.44315 | 2667 ft | 261 kts | 332° |
| 2026-04-25 23:53 | 25.13735 | -77.45312 | 2208 ft | 259 kts | 331° |
| 2026-04-25 23:53 | 25.15288 | -77.46302 | 2045 ft | 256 kts | 331° |
| 2026-04-25 23:54 | 25.16843 | -77.47302 | 2022 ft | 259 kts | 331° |
| 2026-04-25 23:54 | 25.18395 | -77.48309 | 1999 ft | 257 kts | 331° |
| 2026-04-25 23:54 | 25.19933 | -77.49305 | 1997 ft | 256 kts | 331° |
| 2026-04-25 23:54 | 25.21474 | -77.50298 | 2002 ft | 257 kts | 331° |
| 2026-04-25 23:55 | 25.22986 | -77.51273 | 1979 ft | 242 kts | 331° |
| 2026-04-25 23:55 | 25.24383 | -77.52177 | 1974 ft | 223 kts | 331° |
| 2026-04-25 23:55 | 25.25511 | -77.53226 | 1984 ft | 206 kts | 303° |
| 2026-04-25 23:55 | 25.25968 | -77.54701 | 2018 ft | 203 kts | 283° |
| 2026-04-25 23:56 | 25.26243 | -77.56237 | 2023 ft | 204 kts | 282° |
| 2026-04-25 23:56 | 25.26506 | -77.57779 | 2014 ft | 204 kts | 281° |
| 2026-04-25 23:56 | 25.26763 | -77.59314 | 2003 ft | 202 kts | 281° |
| 2026-04-25 23:56 | 25.27018 | -77.60840 | 2008 ft | 202 kts | 281° |
| 2026-04-25 23:57 | 25.27275 | -77.62372 | 1989 ft | 202 kts | 281° |
| 2026-04-25 23:57 | 25.27483 | -77.63904 | 1982 ft | 202 kts | 269° |
| 2026-04-25 23:57 | 25.27032 | -77.65324 | 2008 ft | 202 kts | 231° |
| 2026-04-25 23:57 | 25.25893 | -77.66169 | 2003 ft | 199 kts | 192° |
| 2026-04-25 23:58 | 25.24538 | -77.66113 | 2019 ft | 196 kts | 163° |
| 2026-04-25 23:58 | 25.23221 | -77.65705 | 1995 ft | 196 kts | 161° |
| 2026-04-25 23:58 | 25.21907 | -77.65280 | 1994 ft | 198 kts | 161° |
| 2026-04-25 23:58 | 25.20687 | -77.64647 | 1987 ft | 189 kts | 139° |
| 2026-04-25 23:59 | 25.19737 | -77.63765 | 1975 ft | 170 kts | 139° |
| 2026-04-25 23:59 | 25.18879 | -77.62922 | 1989 ft | 162 kts | 132° |
| 2026-04-25 23:59 | 25.18090 | -77.62013 | 2007 ft | 164 kts | 132° |
| 2026-04-25 23:59 | 25.17303 | -77.61116 | 1991 ft | 161 kts | 133° |
| 2026-04-26 00:00 | 25.16527 | -77.60242 | 1992 ft | 158 kts | 133° |
| 2026-04-26 00:00 | 25.15742 | -77.59365 | 2021 ft | 164 kts | 132° |
| 2026-04-26 00:00 | 25.14937 | -77.58466 | 2016 ft | 163 kts | 132° |
| 2026-04-26 00:00 | 25.14155 | -77.57595 | 2023 ft | 160 kts | 133° |
| 2026-04-26 00:01 | 25.13391 | -77.56744 | 1996 ft | 153 kts | 132° |
| 2026-04-26 00:01 | 25.12655 | -77.55923 | 1993 ft | 149 kts | 132° |
| 2026-04-26 00:01 | 25.11909 | -77.55091 | 1874 ft | 154 kts | 132° |
| 2026-04-26 00:01 | 25.11164 | -77.54259 | 1696 ft | 151 kts | 131° |
| 2026-04-26 00:02 | 25.10431 | -77.53441 | 1502 ft | 150 kts | 131° |
| 2026-04-26 00:02 | 25.09709 | -77.52637 | 1320 ft | 140 kts | 131° |
| 2026-04-26 00:02 | 25.09058 | -77.51901 | 1051 ft | 132 kts | 128° |
| 2026-04-26 00:02 | 25.08412 | -77.51157 | 903 ft | 137 kts | 131° |
| 2026-04-26 00:03 | 25.07714 | -77.50382 | 776 ft | 146 kts | 131° |
| 2026-04-26 00:03 | 25.06988 | -77.49566 | 594 ft | 151 kts | 132° |
| 2026-04-26 00:03 | 25.06258 | -77.48756 | 371 ft | 147 kts | 132° |
| 2026-04-26 00:03 | 25.05543 | -77.47965 | 143 ft | 143 kts | 132° |
| 2026-04-26 00:04 | 25.04876 | -77.47226 | 29 ft | 128 kts | 130° |
| 2026-04-26 00:04 | 25.04325 | -77.46599 | 18 ft | 95 kts | 137° |
| 2026-04-26 00:04 | 25.03991 | -77.46248 | 18 ft | 56 kts | 135° |
| 2026-04-26 00:04 | 25.03769 | -77.45999 | 20 ft | 33 kts | 134° |
| 2026-04-26 00:05 | 25.03657 | -77.45879 | 18 ft | 21 kts | 139° |
| 2026-04-26 00:05 | 25.03593 | -77.45746 | 19 ft | 21 kts | 91° |
| 2026-04-26 00:05 | 25.03619 | -77.45647 | 19 ft | 20 kts | 40° |
| 2026-04-26 00:05 | 25.03724 | -77.45698 | 18 ft | 18 kts | 314° |
| 2026-04-26 00:06 | 25.03808 | -77.45794 | 18 ft | 17 kts | 313° |
| 2026-04-26 00:06 | 25.03913 | -77.45917 | 17 ft | 16 kts | 313° |
| 2026-04-26 00:06 | 25.03994 | -77.46004 | 18 ft | 17 kts | 317° |
| 2026-04-26 00:06 | 25.04058 | -77.46070 | 17 ft | 20 kts | 316° |
| 2026-04-26 00:07 | 25.04164 | -77.46182 | 18 ft | 21 kts | 316° |
| 2026-04-26 00:07 | 25.04267 | -77.46296 | 17 ft | 21 kts | 314° |
| 2026-04-26 00:07 | 25.04366 | -77.46409 | 16 ft | 20 kts | 315° |
| 2026-04-26 00:07 | 25.04454 | -77.46440 | 16 ft | 11 kts | 40° |
| 2026-04-26 00:08 | 25.04494 | -77.46375 | 16 ft | 10 kts | 51° |
| 2026-04-26 00:08 | 25.04557 | -77.46364 | 16 ft | 8 kts | 346° |
| 2026-04-26 00:08 | 25.04562 | -77.46365 | 16 ft | 0 kts | 346° |